Time;durP1;ratioP1;P1;durP2;ratioP2;P2;SDS_P1;SDS_P2;PMS_P1;PMS_P2;Temp;Humidity;BMP_temperature;BMP_pressure;BME280_temperature;BME280_humidity;BME280_pressure;Samples;Min_cycle;Max_cycle;Signal;HPM_P1;HPM_P2
2022/12/04 00:01:36;;;;;;;43.00;17.13;;;;;-0.30;101086.00;;;;10470129;28;20195;-78
2022/12/04 00:06:37;;;;;;;43.67;17.53;;;;;-0.30;101092.00;;;;10468420;28;20252;-78
2022/12/04 00:11:39;;;;;;;40.60;17.73;;;;;-0.30;101101.00;;;;10439734;28;20222;-78
2022/12/04 00:16:41;;;;;;;43.07;19.23;;;;;-0.30;101089.00;;;;10441433;28;20197;-78
2022/12/04 00:21:44;;;;;;;44.83;17.53;;;;;-0.30;101096.00;;;;10418862;28;20202;-78
2022/12/04 00:26:46;;;;;;;48.63;20.10;;;;;-0.40;101090.00;;;;10442261;28;20663;-78
2022/12/04 00:31:47;;;;;;;48.93;18.47;;;;;-0.40;101092.00;;;;10444228;28;20213;-78
2022/12/04 00:36:50;;;;;;;41.27;19.43;;;;;-0.50;101088.00;;;;10437143;28;20250;-78
2022/12/04 00:41:51;;;;;;;45.40;17.97;;;;;-0.60;101079.00;;;;10417562;28;20240;-78
2022/12/04 00:46:53;;;;;;;51.47;19.50;;;;;-0.60;101078.00;;;;10403808;28;20578;-78
2022/12/04 00:51:55;;;;;;;54.57;18.27;;;;;-0.60;101082.00;;;;10458491;28;20206;-78
2022/12/04 00:56:57;;;;;;;43.60;18.83;;;;;-0.70;101080.00;;;;10413564;28;20215;-78
2022/12/04 01:01:59;;;;;;;47.30;17.00;;;;;-0.70;101083.00;;;;10432564;28;20217;-78
2022/12/04 01:07:01;;;;;;;43.30;17.97;;;;;-0.70;101072.00;;;;10412513;28;20200;-78
2022/12/04 01:12:06;;;;;;;46.70;19.37;;;;;-0.70;101080.00;;;;10402422;28;20568;-77
2022/12/04 01:17:08;;;;;;;43.57;18.27;;;;;-0.70;101079.00;;;;10394404;28;20193;-78
2022/12/04 01:22:10;;;;;;;45.97;18.70;;;;;-0.60;101085.00;;;;10442884;28;20229;-77
2022/12/04 01:27:12;;;;;;;48.63;19.47;;;;;-0.40;101100.00;;;;10446840;28;20770;-78
2022/12/04 01:32:15;;;;;;;49.27;18.03;;;;;-0.20;101093.00;;;;10441746;28;20207;-78
2022/12/04 01:37:17;;;;;;;49.90;18.13;;;;;-0.10;101086.00;;;;10469010;28;20213;-78
2022/12/04 01:42:19;;;;;;;51.20;19.20;;;;;0.00;101076.00;;;;10433138;28;20190;-78
2022/12/04 01:47:21;;;;;;;49.53;20.30;;;;;0.10;101065.00;;;;10418732;28;20205;-78
2022/12/04 01:52:24;;;;;;;42.93;19.20;;;;;0.20;101065.00;;;;10434644;28;20266;-78
2022/12/04 01:57:31;;;;;;;48.40;18.37;;;;;0.20;101066.00;;;;10448577;28;20191;-78
2022/12/04 02:02:37;;;;;;;50.30;18.77;;;;;0.30;101061.00;;;;10453965;28;20289;-78
2022/12/04 02:07:43;;;;;;;49.13;20.00;;;;;0.40;101057.00;;;;10466761;28;20232;-78
2022/12/04 02:13:10;;;;;;;46.57;20.87;;;;;0.40;101060.00;;;;10410898;28;20691;-78
2022/12/04 02:18:41;;;;;;;60.70;20.97;;;;;0.40;101071.00;;;;10431340;28;20598;-77
2022/12/04 02:23:58;;;;;;;48.80;21.37;;;;;0.50;101064.00;;;;10390331;28;20205;-78
2022/12/04 02:29:15;;;;;;;52.63;20.77;;;;;0.50;101065.00;;;;10424626;28;20193;-78
2022/12/04 02:34:27;;;;;;;47.70;21.07;;;;;0.50;101058.00;;;;10462957;28;20270;-78
2022/12/04 02:39:37;;;;;;;46.80;20.43;;;;;0.60;101050.00;;;;10490939;28;20244;-78
2022/12/04 02:44:46;;;;;;;47.73;19.23;;;;;0.60;101051.00;;;;10419238;28;20206;-78
2022/12/04 02:50:07;;;;;;;41.80;18.97;;;;;0.60;101036.00;;;;10423631;28;20248;-78
2022/12/04 02:55:19;;;;;;;45.47;19.07;;;;;0.60;101045.00;;;;10438626;28;20560;-78
2022/12/04 03:00:21;;;;;;;58.33;21.43;;;;;0.60;101030.00;;;;10438098;28;20313;-78
2022/12/04 03:05:49;;;;;;;48.33;19.47;;;;;0.70;101038.00;;;;10458531;28;20853;-78
2022/12/04 03:10:56;;;;;;;54.87;21.23;;;;;0.70;101036.00;;;;10458101;28;20210;-78
2022/12/04 03:16:18;;;;;;;50.93;20.13;;;;;0.70;101038.00;;;;10427980;28;20190;-78
2022/12/04 03:21:25;;;;;;;49.53;20.20;;;;;0.70;101039.00;;;;10502066;28;20204;-78
2022/12/04 03:26:34;;;;;;;52.93;21.77;;;;;0.70;101032.00;;;;10488579;28;20529;-78
2022/12/04 03:31:49;;;;;;;50.27;20.00;;;;;0.70;101031.00;;;;10474781;28;20745;-78
2022/12/04 03:36:56;;;;;;;66.27;23.73;;;;;0.70;101036.00;;;;10464234;28;20186;-78
2022/12/04 03:42:26;;;;;;;54.47;21.17;;;;;0.80;101042.00;;;;10463990;28;20243;-78
2022/12/04 03:48:12;;;;;;;52.43;20.80;;;;;0.80;101026.00;;;;10454640;28;20206;-78
2022/12/04 03:53:40;;;;;;;49.90;20.57;;;;;0.80;101026.00;;;;10413807;28;20226;-78
2022/12/04 03:58:46;;;;;;;51.83;22.47;;;;;0.80;101030.00;;;;10405033;28;20218;-78
2022/12/04 04:03:52;;;;;;;52.83;20.60;;;;;0.90;101031.00;;;;10427013;28;20213;-77
2022/12/04 04:08:57;;;;;;;42.90;19.70;;;;;0.90;101035.00;;;;10479465;28;20200;-78
2022/12/04 04:25:01;;;;;;;58.33;23.00;;;;;0.90;101042.00;;;;10461598;28;20217;-78
2022/12/04 04:30:05;;;;;;;50.73;21.03;;;;;0.90;101045.00;;;;10459802;28;20195;-77
2022/12/04 04:35:34;;;;;;;53.20;20.90;;;;;1.00;101029.00;;;;10469888;28;20192;-78
2022/12/04 04:40:48;;;;;;;51.97;18.17;;;;;1.00;101031.00;;;;10485799;28;20181;-78
2022/12/04 04:46:14;;;;;;;51.40;20.00;;;;;1.00;101031.00;;;;10482966;28;20712;-78
2022/12/04 04:51:17;;;;;;;48.13;20.73;;;;;1.00;101037.00;;;;10460597;28;20201;-77
2022/12/04 04:56:20;;;;;;;51.40;20.63;;;;;1.00;101027.00;;;;10477219;28;20220;-77
2022/12/04 05:01:25;;;;;;;54.43;21.73;;;;;1.00;101027.00;;;;10475488;28;20206;-77
2022/12/04 05:06:27;;;;;;;45.33;20.27;;;;;1.00;101032.00;;;;10444426;28;20715;-78
2022/12/04 05:11:29;;;;;;;57.10;23.83;;;;;1.00;101028.00;;;;10433325;28;20202;-78
2022/12/04 05:16:31;;;;;;;47.63;20.63;;;;;1.00;101019.00;;;;10389826;28;20197;-77
2022/12/04 05:21:33;;;;;;;52.57;20.77;;;;;1.00;101028.00;;;;10453009;28;20238;-78
2022/12/04 05:26:35;;;;;;;57.20;23.63;;;;;1.00;101013.00;;;;10474755;28;20556;-77
2022/12/04 05:31:37;;;;;;;60.93;23.03;;;;;1.00;101020.00;;;;10454626;28;20251;-78
2022/12/04 05:36:39;;;;;;;59.47;24.03;;;;;1.00;101022.00;;;;10444782;28;20197;-77
2022/12/04 05:41:41;;;;;;;47.20;21.77;;;;;1.00;101012.00;;;;10457089;28;20296;-78
2022/12/04 05:46:43;;;;;;;51.50;21.53;;;;;0.90;101003.00;;;;10428188;28;20556;-78
2022/12/04 05:51:44;;;;;;;48.10;21.13;;;;;0.90;101011.00;;;;10431338;28;20210;-78
2022/12/04 05:56:47;;;;;;;53.13;20.97;;;;;0.90;100993.00;;;;10425017;28;20277;-79
2022/12/04 06:01:49;;;;;;;50.07;20.70;;;;;0.90;100990.00;;;;10412703;28;20591;-78
2022/12/04 06:06:52;;;;;;;49.97;21.47;;;;;0.80;100995.00;;;;10421915;28;20206;-77
2022/12/04 06:11:57;;;;;;;51.70;21.87;;;;;0.80;101005.00;;;;10464898;28;20687;-77
2022/12/04 06:16:59;;;;;;;46.87;19.53;;;;;0.90;101017.00;;;;10437345;28;20193;-77
2022/12/04 06:22:00;;;;;;;48.87;20.63;;;;;0.90;101026.00;;;;10464704;28;20197;-78
2022/12/04 06:27:02;;;;;;;52.60;23.20;;;;;0.90;101019.00;;;;10447625;28;20678;-77
2022/12/04 06:32:24;;;;;;;59.03;22.47;;;;;0.90;101019.00;;;;10440885;28;20247;-78
2022/12/04 06:37:26;;;;;;;57.40;24.53;;;;;0.90;101012.00;;;;10486145;28;20258;-77
2022/12/04 06:42:28;;;;;;;52.97;21.93;;;;;0.90;101016.00;;;;10479391;28;20656;-77
2022/12/04 06:47:30;;;;;;;49.83;21.10;;;;;0.90;101024.00;;;;10447570;28;20220;-77
2022/12/04 06:52:33;;;;;;;58.90;21.37;;;;;0.90;101017.00;;;;10407203;28;20202;-78
2022/12/04 06:57:34;;;;;;;55.93;21.87;;;;;0.90;101029.00;;;;10447945;28;20225;-78
2022/12/04 07:02:36;;;;;;;57.03;22.67;;;;;0.90;101025.00;;;;10452620;28;20217;-77
2022/12/04 07:07:38;;;;;;;54.07;20.67;;;;;0.90;101031.00;;;;10403806;28;20209;-78
2022/12/04 07:12:40;;;;;;;51.00;21.93;;;;;0.90;101027.00;;;;10459911;28;20205;-77
2022/12/04 07:17:42;;;;;;;54.03;21.60;;;;;1.00;101028.00;;;;10464955;28;20251;-77
2022/12/04 07:22:44;;;;;;;50.77;20.90;;;;;1.00;101027.00;;;;10453341;28;20199;-78
2022/12/04 07:27:46;;;;;;;50.07;22.03;;;;;1.00;101035.00;;;;10430318;28;20208;-78
2022/12/04 07:32:48;;;;;;;53.23;21.17;;;;;1.00;101035.00;;;;10409057;28;20206;-77
2022/12/04 07:37:50;;;;;;;54.37;22.13;;;;;1.10;101047.00;;;;10421084;28;20580;-77
2022/12/04 07:42:52;;;;;;;52.77;22.10;;;;;1.10;101048.00;;;;10440111;28;20185;-78
2022/12/04 07:47:53;;;;;;;50.63;21.60;;;;;1.10;101056.00;;;;10482128;28;20201;-77
2022/12/04 07:52:55;;;;;;;55.53;22.63;;;;;1.10;101056.00;;;;10444431;28;20824;-77
2022/12/04 07:57:58;;;;;;;51.37;22.23;;;;;1.20;101057.00;;;;10437364;28;20224;-77
2022/12/04 08:03:00;;;;;;;47.23;20.47;;;;;1.20;101053.00;;;;10438174;28;20214;-77
2022/12/04 08:08:02;;;;;;;57.70;22.70;;;;;1.20;101055.00;;;;10446568;28;20219;-78
2022/12/04 08:13:04;;;;;;;49.27;22.30;;;;;1.30;101061.00;;;;10476227;28;20202;-77
2022/12/04 08:18:06;;;;;;;59.33;24.30;;;;;1.40;101062.00;;;;10493771;28;20225;-78
2022/12/04 08:23:08;;;;;;;47.07;21.37;;;;;1.40;101062.00;;;;10459842;28;20560;-77
2022/12/04 08:28:10;;;;;;;55.70;23.50;;;;;1.50;101062.00;;;;10429956;28;20202;-78
2022/12/04 08:33:12;;;;;;;61.37;24.37;;;;;1.60;101056.00;;;;10429554;28;20212;-78
2022/12/04 08:38:14;;;;;;;52.37;22.60;;;;;1.60;101055.00;;;;10443035;28;20264;-77
2022/12/04 08:43:16;;;;;;;49.87;21.97;;;;;1.80;101052.00;;;;10440986;28;20273;-78
2022/12/04 08:48:18;;;;;;;50.10;22.93;;;;;1.80;101055.00;;;;10435583;28;20618;-78
2022/12/04 08:53:20;;;;;;;50.00;21.27;;;;;1.90;101060.00;;;;10447703;28;20700;-78
2022/12/04 08:58:22;;;;;;;49.67;22.70;;;;;1.90;101056.00;;;;10445404;28;20205;-78
2022/12/04 09:03:24;;;;;;;44.67;22.07;;;;;2.00;101050.00;;;;10429729;28;20217;-78
2022/12/04 09:08:32;;;;;;;49.60;22.03;;;;;2.00;101049.00;;;;10468830;28;20696;-78
2022/12/04 09:13:34;;;;;;;42.07;19.23;;;;;2.00;101057.00;;;;10451636;28;20730;-78
2022/12/04 09:24:16;;;;;;;46.07;22.00;;;;;2.30;101051.00;;;;10450022;28;20340;-79
2022/12/04 09:29:19;;;;;;;47.47;22.67;;;;;2.50;101050.00;;;;10389552;28;20288;-79
2022/12/04 09:34:26;;;;;;;51.20;22.67;;;;;2.50;101050.00;;;;10424595;28;20202;-79
2022/12/04 09:39:37;;;;;;;45.27;20.47;;;;;2.50;101063.00;;;;10446171;28;20204;-78
2022/12/04 09:45:18;;;;;;;44.80;20.67;;;;;2.30;101055.00;;;;10436164;28;20190;-78
2022/12/04 09:51:17;;;;;;;39.30;19.03;;;;;2.30;101050.00;;;;10451974;28;20186;-77
2022/12/04 09:56:23;;;;;;;41.00;20.73;;;;;2.30;101056.00;;;;10444268;28;20621;-78
2022/12/04 10:02:10;;;;;;;40.87;18.47;;;;;2.30;101054.00;;;;10434957;28;20218;-78
2022/12/04 10:08:16;;;;;;;45.07;18.93;;;;;2.30;101056.00;;;;10426677;28;20287;-78
2022/12/04 10:13:46;;;;;;;40.20;17.77;;;;;2.30;101056.00;;;;10456207;28;20210;-78
2022/12/04 10:20:03;;;;;;;37.70;17.63;;;;;2.40;101057.00;;;;10406324;28;20260;-78
2022/12/04 10:25:39;;;;;;;39.00;19.03;;;;;2.50;101050.00;;;;10447090;28;20237;-77
2022/12/04 10:30:42;;;;;;;29.10;15.10;;;;;2.50;101062.00;;;;10424638;28;20194;-78
2022/12/04 10:35:47;;;;;;;31.73;15.30;;;;;2.40;101054.00;;;;10448828;28;20283;-77
2022/12/04 10:40:58;;;;;;;25.17;13.63;;;;;2.40;101061.00;;;;10445733;28;20213;-78
2022/12/04 10:46:00;;;;;;;35.10;16.67;;;;;2.30;101050.00;;;;10459410;28;20198;-75
2022/12/04 10:51:03;;;;;;;31.63;15.70;;;;;2.30;101047.00;;;;10441368;28;20305;-75
2022/12/04 10:56:14;;;;;;;24.93;13.63;;;;;2.40;101046.00;;;;10452911;28;20221;-75
2022/12/04 11:01:16;;;;;;;24.40;11.63;;;;;2.30;101052.00;;;;10454621;28;20304;-75
2022/12/04 11:06:24;;;;;;;28.07;15.17;;;;;2.30;101030.00;;;;10452258;28;20191;-75
2022/12/04 11:11:32;;;;;;;26.20;14.07;;;;;2.40;101037.00;;;;10467160;28;20205;-75
2022/12/04 11:16:37;;;;;;;26.57;14.53;;;;;2.40;101036.00;;;;10470216;28;20194;-75
2022/12/04 11:21:42;;;;;;;32.07;16.17;;;;;2.40;101031.00;;;;10460148;28;20567;-75
2022/12/04 11:26:46;;;;;;;29.00;14.97;;;;;2.40;101020.00;;;;10449453;28;20703;-75
2022/12/04 11:31:53;;;;;;;31.93;16.63;;;;;2.40;101032.00;;;;10466890;28;20198;-74
2022/12/04 11:36:59;;;;;;;35.97;16.23;;;;;2.40;101022.00;;;;10446620;28;20556;-75
2022/12/04 11:42:18;;;;;;;27.20;14.03;;;;;2.40;101025.00;;;;10451296;28;20296;-75
2022/12/04 11:47:22;;;;;;;31.27;16.33;;;;;2.50;101023.00;;;;10463002;28;20240;-75
2022/12/04 11:53:01;;;;;;;31.63;15.70;;;;;2.50;101017.00;;;;10440750;28;20229;-75
2022/12/04 11:58:37;;;;;;;28.23;15.63;;;;;2.50;101006.00;;;;10462638;28;20579;-75
2022/12/04 12:04:17;;;;;;;29.97;14.90;;;;;2.50;101008.00;;;;10438150;28;20221;-75
2022/12/04 12:09:27;;;;;;;25.00;13.57;;;;;2.50;101001.00;;;;10427996;28;20205;-75
2022/12/04 12:14:48;;;;;;;24.77;12.53;;;;;2.60;100993.00;;;;10461596;28;20223;-75
2022/12/04 12:20:20;;;;;;;26.10;14.23;;;;;2.50;100989.00;;;;10465737;28;20190;-75
2022/12/04 12:25:34;;;;;;;27.73;14.57;;;;;2.50;100980.00;;;;10471515;28;20205;-75
2022/12/04 12:31:17;;;;;;;23.37;13.27;;;;;2.70;100978.00;;;;10466220;28;20193;-75
2022/12/04 12:36:23;;;;;;;23.67;11.67;;;;;2.70;100973.00;;;;10443730;28;20796;-75
2022/12/04 12:41:34;;;;;;;21.57;11.03;;;;;2.70;100963.00;;;;10441379;28;20185;-75
2022/12/04 12:46:47;;;;;;;19.80;12.00;;;;;2.70;100969.00;;;;10443562;28;20656;-75
2022/12/04 12:52:11;;;;;;;20.07;12.03;;;;;2.80;100965.00;;;;10479234;28;20202;-75
2022/12/04 12:57:31;;;;;;;20.47;12.13;;;;;2.60;100969.00;;;;10445686;28;20683;-75
2022/12/04 13:02:41;;;;;;;25.17;14.03;;;;;2.60;100976.00;;;;10483303;28;20301;-75
2022/12/04 13:07:57;;;;;;;23.40;13.10;;;;;2.50;100974.00;;;;10454420;28;20194;-75
2022/12/04 13:13:04;;;;;;;27.67;15.63;;;;;2.40;100981.00;;;;10444375;28;20201;-75
2022/12/04 13:18:10;;;;;;;26.30;14.97;;;;;2.30;100981.00;;;;10464539;28;20239;-75
2022/12/04 13:23:30;;;;;;;26.33;14.43;;;;;2.20;100978.00;;;;10459747;28;20198;-76
2022/12/04 13:29:01;;;;;;;30.57;19.43;;;;;2.20;100976.00;;;;10451666;28;20198;-75
2022/12/04 13:34:30;;;;;;;32.60;18.37;;;;;2.10;100971.00;;;;10438267;28;20210;-75
2022/12/04 13:40:13;;;;;;;31.37;19.43;;;;;2.10;100962.00;;;;10455684;28;20190;-75
2022/12/04 13:45:27;;;;;;;32.90;18.53;;;;;2.00;100981.00;;;;10394492;28;20212;-75
2022/12/04 13:50:34;;;;;;;34.70;20.20;;;;;2.00;100974.00;;;;10468664;28;20284;-74
2022/12/04 13:55:38;;;;;;;37.00;20.13;;;;;2.00;100970.00;;;;10441722;28;20255;-75
2022/12/04 14:00:42;;;;;;;37.70;20.87;;;;;1.90;100973.00;;;;10464851;28;20566;-75
2022/12/04 14:05:44;;;;;;;29.73;18.53;;;;;1.90;100981.00;;;;10438917;28;20257;-75
2022/12/04 14:11:17;;;;;;;24.80;15.03;;;;;1.80;100984.00;;;;10445056;28;20247;-75
2022/12/04 14:16:28;;;;;;;28.83;15.70;;;;;1.80;100979.00;;;;10412832;28;20198;-75
2022/12/04 14:21:45;;;;;;;29.07;16.93;;;;;1.80;100976.00;;;;10446514;28;20307;-75
2022/12/04 14:26:51;;;;;;;29.80;16.63;;;;;1.80;100986.00;;;;10479024;28;20213;-75
2022/12/04 14:32:17;;;;;;;28.80;16.57;;;;;1.70;100991.00;;;;10472612;28;20220;-75
2022/12/04 14:37:30;;;;;;;24.50;16.10;;;;;1.70;100978.00;;;;10448787;28;20193;-75
2022/12/04 14:42:39;;;;;;;30.10;16.73;;;;;1.60;100990.00;;;;10443837;28;20178;-75
2022/12/04 14:48:05;;;;;;;30.67;15.97;;;;;1.60;100990.00;;;;10478771;28;20197;-75
2022/12/04 14:53:28;;;;;;;29.30;15.27;;;;;1.60;100990.00;;;;10468490;28;20213;-75
2022/12/04 14:58:35;;;;;;;23.40;13.93;;;;;1.60;101003.00;;;;10461091;28;20197;-75
2022/12/04 15:03:43;;;;;;;22.93;14.33;;;;;1.50;101005.00;;;;10451690;28;20300;-75
2022/12/04 15:08:51;;;;;;;28.87;15.53;;;;;1.50;101003.00;;;;10439855;28;20193;-75
2022/12/04 15:13:52;;;;;;;27.37;15.33;;;;;1.50;101006.00;;;;10468248;28;20225;-75
2022/12/04 15:18:59;;;;;;;33.40;17.33;;;;;1.40;101015.00;;;;10451240;28;20682;-75
2022/12/04 15:24:07;;;;;;;33.93;17.57;;;;;1.40;101019.00;;;;10459730;28;20202;-75
2022/12/04 15:29:17;;;;;;;32.00;17.80;;;;;1.40;101030.00;;;;10440049;28;20250;-75
2022/12/04 15:34:23;;;;;;;27.03;15.97;;;;;1.40;101039.00;;;;10448373;28;20561;-75
2022/12/04 15:39:27;;;;;;;30.07;17.43;;;;;1.40;101034.00;;;;10474597;28;20301;-75
2022/12/04 15:44:34;;;;;;;34.43;17.03;;;;;1.30;101038.00;;;;10472417;28;20197;-75
2022/12/04 15:49:36;;;;;;;31.10;17.00;;;;;1.30;101034.00;;;;10464432;28;20829;-75
2022/12/04 15:54:43;;;;;;;35.23;16.07;;;;;1.30;101036.00;;;;10462662;28;20225;-75
2022/12/04 15:59:50;;;;;;;26.80;16.93;;;;;1.30;101041.00;;;;10444678;28;20194;-75
2022/12/04 16:04:52;;;;;;;32.23;16.83;;;;;1.30;101041.00;;;;10439776;28;20218;-75
2022/12/04 16:09:57;;;;;;;25.77;15.80;;;;;1.30;101049.00;;;;10491400;28;20204;-75
2022/12/04 16:15:04;;;;;;;28.53;15.73;;;;;1.30;101052.00;;;;10463315;28;20262;-75
2022/12/04 16:20:07;;;;;;;31.40;17.00;;;;;1.30;101054.00;;;;10453870;28;20188;-75
2022/12/04 16:25:10;;;;;;;30.20;16.60;;;;;1.30;101041.00;;;;10446845;28;20197;-75
2022/12/04 16:30:13;;;;;;;24.03;14.57;;;;;1.30;101050.00;;;;10463524;28;20681;-75
2022/12/04 16:35:16;;;;;;;30.80;16.60;;;;;1.30;101044.00;;;;10441811;28;20198;-75
2022/12/04 16:40:18;;;;;;;27.10;15.50;;;;;1.30;101051.00;;;;10449230;28;20193;-75
2022/12/04 16:45:19;;;;;;;30.50;16.63;;;;;1.30;101049.00;;;;10473312;28;20186;-75
2022/12/04 16:50:22;;;;;;;27.73;16.83;;;;;1.30;101052.00;;;;10435142;28;20580;-75
2022/12/04 16:55:32;;;;;;;29.50;16.33;;;;;1.30;101058.00;;;;10467888;28;20194;-75
2022/12/04 17:00:35;;;;;;;27.77;15.13;;;;;1.30;101058.00;;;;10460156;28;20228;-75
2022/12/04 17:05:37;;;;;;;32.30;16.63;;;;;1.30;101056.00;;;;10444863;28;20189;-75
2022/12/04 17:10:39;;;;;;;32.17;17.70;;;;;1.30;101049.00;;;;10454673;28;20217;-74
2022/12/04 17:15:41;;;;;;;33.53;18.97;;;;;1.30;101060.00;;;;10466877;28;20564;-75
2022/12/04 17:20:43;;;;;;;30.53;15.63;;;;;1.30;101063.00;;;;10441196;28;20194;-75
2022/12/04 17:25:45;;;;;;;31.67;17.93;;;;;1.20;101067.00;;;;10446687;28;20196;-75
2022/12/04 17:30:47;;;;;;;32.87;17.73;;;;;1.20;101061.00;;;;10436179;28;20194;-75
2022/12/04 17:35:49;;;;;;;35.50;19.43;;;;;1.30;101067.00;;;;10456507;28;20212;-75
2022/12/04 17:41:02;;;;;;;33.97;18.80;;;;;1.30;101074.00;;;;10441567;28;20224;-75
2022/12/04 17:46:11;;;;;;;34.00;17.87;;;;;1.30;101078.00;;;;10443682;28;20185;-75
2022/12/04 17:51:16;;;;;;;34.97;18.33;;;;;1.30;101073.00;;;;10437203;28;20202;-75
2022/12/04 17:56:20;;;;;;;36.03;20.60;;;;;1.30;101086.00;;;;10432483;28;20213;-75
2022/12/04 18:01:25;;;;;;;34.53;16.83;;;;;1.30;101086.00;;;;10435138;28;20225;-75
2022/12/04 18:06:30;;;;;;;40.03;18.93;;;;;1.40;101092.00;;;;10472673;28;20197;-75
2022/12/04 18:11:33;;;;;;;35.90;18.40;;;;;1.40;101089.00;;;;10452776;28;20189;-75
2022/12/04 18:16:38;;;;;;;36.13;18.93;;;;;1.40;101090.00;;;;10449652;28;20204;-75
2022/12/04 18:27:45;;;;;;;39.10;20.23;;;;;1.40;101090.00;;;;11175633;24;20248;-78
2022/12/04 18:32:47;;;;;;;42.23;19.93;;;;;1.40;101085.00;;;;9739734;30;20257;-78
2022/12/04 18:37:49;;;;;;;43.30;20.73;;;;;1.40;101093.00;;;;9769201;30;20201;-78
2022/12/04 18:42:51;;;;;;;44.63;21.13;;;;;1.40;101080.00;;;;9768916;30;20242;-78
2022/12/04 18:47:53;;;;;;;42.30;20.23;;;;;1.40;101086.00;;;;9758642;30;20220;-78
2022/12/04 18:52:54;;;;;;;42.93;21.50;;;;;1.50;101093.00;;;;9749006;30;20566;-79
2022/12/04 18:58:02;;;;;;;39.40;19.70;;;;;1.40;101096.00;;;;9760171;30;20248;-78
2022/12/04 19:03:04;;;;;;;40.53;19.30;;;;;1.40;101100.00;;;;9741268;30;20651;-78
2022/12/04 19:08:08;;;;;;;41.93;18.93;;;;;1.40;101106.00;;;;9794084;30;20210;-78
2022/12/04 19:13:10;;;;;;;41.10;20.77;;;;;1.40;101107.00;;;;9751761;30;20892;-78
2022/12/04 19:18:13;;;;;;;42.73;19.90;;;;;1.40;101111.00;;;;9769937;30;20207;-78
2022/12/04 19:23:15;;;;;;;41.57;19.97;;;;;1.40;101118.00;;;;9753300;30;20215;-78
2022/12/04 19:28:16;;;;;;;42.70;19.53;;;;;1.40;101115.00;;;;9749189;30;20240;-78
2022/12/04 19:33:19;;;;;;;43.50;19.50;;;;;1.40;101118.00;;;;9776948;30;20207;-79
2022/12/04 19:38:21;;;;;;;44.33;19.47;;;;;1.40;101118.00;;;;9766064;30;20198;-79
2022/12/04 19:43:23;;;;;;;40.03;18.50;;;;;1.40;101126.00;;;;9757874;30;20190;-78
2022/12/04 19:48:26;;;;;;;39.37;18.93;;;;;1.40;101131.00;;;;9784231;30;20515;-78
2022/12/04 19:53:28;;;;;;;42.47;20.70;;;;;1.40;101139.00;;;;9765513;30;20219;-78
2022/12/04 19:58:30;;;;;;;35.03;18.67;;;;;1.40;101137.00;;;;9768155;30;20573;-78
2022/12/04 20:03:33;;;;;;;35.70;18.37;;;;;1.40;101136.00;;;;9754211;30;20812;-78
2022/12/04 20:08:36;;;;;;;38.60;19.87;;;;;1.40;101144.00;;;;9768931;30;20264;-78
2022/12/04 20:13:38;;;;;;;43.43;20.93;;;;;1.40;101144.00;;;;9768796;30;20218;-78
2022/12/04 20:18:41;;;;;;;42.50;20.00;;;;;1.50;101149.00;;;;9753879;30;20260;-78
2022/12/04 20:23:48;;;;;;;41.07;19.47;;;;;1.50;101141.00;;;;9765478;30;20210;-78
2022/12/04 20:28:51;;;;;;;42.47;20.07;;;;;1.50;101149.00;;;;9767290;30;20228;-78
2022/12/04 20:33:54;;;;;;;52.30;19.93;;;;;1.50;101143.00;;;;9767114;30;20210;-78
2022/12/04 20:38:58;;;;;;;36.53;17.90;;;;;1.50;101132.00;;;;9760355;30;20205;-78
2022/12/04 20:44:02;;;;;;;41.17;19.97;;;;;1.50;101142.00;;;;9764894;30;20205;-78
2022/12/04 20:49:07;;;;;;;43.77;20.97;;;;;1.50;101140.00;;;;9756295;30;20211;-78
2022/12/04 20:54:17;;;;;;;45.70;21.57;;;;;1.50;101145.00;;;;9721472;30;20210;-78
2022/12/04 20:59:20;;;;;;;51.00;22.03;;;;;1.50;101143.00;;;;9757410;30;20202;-78
2022/12/04 21:04:22;;;;;;;50.43;21.77;;;;;1.60;101151.00;;;;9773726;30;20206;-77
2022/12/04 21:09:25;;;;;;;50.33;23.30;;;;;1.60;101145.00;;;;9759820;30;20213;-77
2022/12/04 21:19:49;;;;;;;49.47;23.37;;;;;1.60;101152.00;;;;9761839;30;20198;-77
2022/12/04 21:24:51;;;;;;;52.33;23.63;;;;;1.60;101146.00;;;;9756709;30;20199;-77
2022/12/04 21:29:54;;;;;;;49.03;23.33;;;;;1.60;101140.00;;;;9744063;30;21009;-77
2022/12/04 21:34:57;;;;;;;55.77;24.67;;;;;1.70;101137.00;;;;9712870;30;20242;-77
2022/12/04 21:39:59;;;;;;;57.80;24.43;;;;;1.70;101131.00;;;;9752224;30;20284;-77
2022/12/04 21:45:05;;;;;;;47.13;21.83;;;;;1.70;101124.00;;;;9752406;30;20229;-77
2022/12/04 21:50:07;;;;;;;51.93;23.20;;;;;1.70;101123.00;;;;9720526;30;20210;-77
2022/12/04 21:55:09;;;;;;;42.73;21.13;;;;;1.70;101120.00;;;;9738464;30;20250;-77
2022/12/04 22:00:12;;;;;;;51.80;22.43;;;;;1.70;101114.00;;;;9737979;30;20578;-77
2022/12/04 22:05:13;;;;;;;49.43;23.00;;;;;1.70;101116.00;;;;9724794;30;20210;-77
2022/12/04 22:10:15;;;;;;;44.30;22.37;;;;;1.70;101123.00;;;;9760449;30;20205;-77
2022/12/04 22:15:18;;;;;;;48.50;23.07;;;;;1.80;101122.00;;;;9735747;30;20248;-77
2022/12/04 22:20:22;;;;;;;50.70;21.20;;;;;1.80;101119.00;;;;9741803;30;20689;-77
2022/12/04 22:25:24;;;;;;;46.00;21.83;;;;;1.80;101127.00;;;;9725435;30;20199;-77
2022/12/04 22:30:26;;;;;;;54.73;22.23;;;;;1.80;101130.00;;;;9743631;30;20291;-77
2022/12/04 22:35:28;;;;;;;48.93;23.10;;;;;1.80;101127.00;;;;9721943;30;20306;-77
2022/12/04 22:40:30;;;;;;;43.50;21.70;;;;;1.80;101134.00;;;;9757600;30;20214;-77
2022/12/04 22:45:32;;;;;;;41.67;19.83;;;;;1.80;101133.00;;;;9762073;30;20286;-77
2022/12/04 22:50:34;;;;;;;44.83;21.20;;;;;1.80;101145.00;;;;9766471;30;20773;-77
2022/12/04 22:55:35;;;;;;;44.33;22.80;;;;;1.80;101157.00;;;;9748667;30;20218;-77
2022/12/04 23:00:38;;;;;;;49.97;22.20;;;;;1.80;101146.00;;;;9714473;30;20842;-77
2022/12/04 23:05:40;;;;;;;51.33;22.27;;;;;1.80;101142.00;;;;9769324;30;20202;-77
2022/12/04 23:10:42;;;;;;;47.07;21.43;;;;;1.80;101153.00;;;;9751330;30;20601;-77
2022/12/04 23:15:43;;;;;;;40.23;19.77;;;;;1.80;101150.00;;;;9759136;30;20582;-77
2022/12/04 23:20:45;;;;;;;52.83;21.07;;;;;1.80;101169.00;;;;9765588;30;20198;-77
2022/12/04 23:25:47;;;;;;;50.70;21.80;;;;;1.80;101150.00;;;;9749944;30;20211;-77
2022/12/04 23:30:49;;;;;;;56.70;22.57;;;;;1.80;101164.00;;;;9762629;30;20315;-77
2022/12/04 23:35:53;;;;;;;54.43;22.53;;;;;1.80;101152.00;;;;9763275;30;20298;-77
2022/12/04 23:41:20;;;;;;;47.13;20.40;;;;;1.80;101152.00;;;;9788301;30;20662;-77
2022/12/04 23:46:32;;;;;;;47.87;21.50;;;;;1.70;101138.00;;;;9760710;30;20621;-77
2022/12/04 23:51:33;;;;;;;54.77;22.13;;;;;1.70;101146.00;;;;9761959;30;20819;-77
2022/12/04 23:56:35;;;;;;;50.57;21.70;;;;;1.70;101144.00;;;;9778950;30;20210;-77
